Time;durP1;ratioP1;P1;durP2;ratioP2;P2;SDS_P1;SDS_P2;PMS_P1;PMS_P2;Temp;Humidity;BMP_temperature;BMP_pressure;BME280_temperature;BME280_humidity;BME280_pressure;Samples;Min_cycle;Max_cycle;Signal;HPM_P1;HPM_P2
2023/07/12 00:01:23;;;;;;;1.90;1.20;;;21.20;99.90;;;;;;5095848;28;20179;-41
2023/07/12 00:03:49;;;;;;;1.73;1.17;;;21.20;99.90;;;;;;5096257;28;20641;-43
2023/07/12 00:06:21;;;;;;;3.30;1.20;;;21.20;99.90;;;;;;5095898;28;20221;-40
2023/07/12 00:08:47;;;;;;;2.33;1.00;;;21.20;99.90;;;;;;5095909;28;20290;-41
2023/07/12 00:11:18;;;;;;;1.57;1.10;;;21.20;99.90;;;;;;5095700;28;20612;-42
2023/07/12 00:13:44;;;;;;;2.23;1.10;;;21.10;99.90;;;;;;5094253;28;20175;-43
2023/07/12 00:16:23;;;;;;;2.77;1.10;;;21.10;99.90;;;;;;5095464;28;20593;-40
2023/07/12 00:18:49;;;;;;;2.23;0.90;;;21.10;99.90;;;;;;5095742;28;20179;-41
2023/07/12 00:21:22;;;;;;;2.03;1.10;;;21.10;99.90;;;;;;5096027;28;20179;-41
2023/07/12 00:23:55;;;;;;;6.33;1.07;;;21.10;99.90;;;;;;5095714;28;20171;-42
2023/07/12 00:26:30;;;;;;;2.20;1.20;;;21.00;99.90;;;;;;5095274;28;20727;-43
2023/07/12 00:28:57;;;;;;;5.13;1.17;;;20.90;99.90;;;;;;5095194;28;20560;-44
2023/07/12 00:31:23;;;;;;;4.70;1.20;;;20.80;99.90;;;;;;5094377;28;20171;-44
2023/07/12 00:33:49;;;;;;;5.93;1.47;;;20.70;99.90;;;;;;5095408;28;20175;-45
2023/07/12 00:36:18;;;;;;;3.33;1.27;;;20.50;99.90;;;;;;5095335;28;20191;-42
2023/07/12 00:38:44;;;;;;;5.00;1.33;;;20.10;99.90;;;;;;5094943;28;20207;-42
2023/07/12 00:41:28;;;;;;;4.10;1.30;;;19.80;99.90;;;;;;5094953;28;20297;-43
2023/07/12 00:44:01;;;;;;;4.87;1.10;;;19.70;99.90;;;;;;5095517;28;20167;-43
2023/07/12 00:46:40;;;;;;;5.33;1.80;;;19.60;99.90;;;;;;5094875;28;20241;-45
2023/07/12 00:49:09;;;;;;;2.13;1.03;;;19.60;99.90;;;;;;5096605;28;20223;-48
2023/07/12 00:52:03;;;;;;;3.73;1.30;;;19.60;99.90;;;;;;5095095;28;20182;-48
2023/07/12 00:54:47;;;;;;;6.07;1.90;;;19.60;99.90;;;;;;5095958;28;20250;-50
2023/07/12 00:57:13;;;;;;;3.20;1.40;;;19.60;99.90;;;;;;5094969;28;20166;-48
2023/07/12 00:59:39;;;;;;;2.03;1.23;;;19.60;99.90;;;;;;5094921;28;20587;-47
2023/07/12 01:02:05;;;;;;;3.70;1.13;;;19.60;99.90;;;;;;5094851;28;20597;-47
2023/07/12 01:04:40;;;;;;;1.20;1.10;;;19.60;99.90;;;;;;5094724;28;20261;-46
2023/07/12 01:07:06;;;;;;;3.10;1.27;;;19.60;99.90;;;;;;5094424;28;20343;-48
2023/07/12 01:09:32;;;;;;;2.63;1.10;;;19.60;99.90;;;;;;5094966;28;20645;-47
2023/07/12 01:11:59;;;;;;;3.60;1.30;;;19.60;99.90;;;;;;5094950;28;20194;-46
2023/07/12 01:14:25;;;;;;;4.60;1.37;;;19.50;99.90;;;;;;5094328;28;20167;-47
2023/07/12 01:16:56;;;;;;;7.07;1.80;;;19.50;99.90;;;;;;5094616;28;20171;-47
2023/07/12 01:19:22;;;;;;;5.07;1.50;;;19.50;99.90;;;;;;5094522;28;20161;-47
2023/07/12 01:21:50;;;;;;;4.80;1.37;;;19.40;99.90;;;;;;5094218;28;20237;-47
2023/07/12 01:24:17;;;;;;;3.73;1.50;;;19.40;99.90;;;;;;5094204;28;20183;-47
2023/07/12 01:26:45;;;;;;;9.07;1.50;;;19.30;99.90;;;;;;5094319;28;20230;-47
2023/07/12 01:29:11;;;;;;;3.77;1.60;;;19.30;99.90;;;;;;5094677;28;20171;-48
2023/07/12 01:31:37;;;;;;;5.23;1.53;;;19.20;99.90;;;;;;5094333;28;20583;-47
2023/07/12 01:34:03;;;;;;;7.93;1.90;;;19.20;99.90;;;;;;5094000;28;20175;-47
2023/07/12 01:36:31;;;;;;;4.00;1.60;;;19.20;99.90;;;;;;5094204;28;20625;-47
2023/07/12 01:38:59;;;;;;;4.10;1.70;;;19.20;99.90;;;;;;5093779;28;20220;-47
2023/07/12 01:41:25;;;;;;;5.80;1.70;;;19.20;99.90;;;;;;5093889;28;20546;-48
2023/07/12 01:43:51;;;;;;;5.50;1.77;;;19.20;99.90;;;;;;5094016;28;20174;-46
2023/07/12 01:46:17;;;;;;;5.57;1.47;;;19.10;99.90;;;;;;5094065;28;20198;-46
2023/07/12 01:48:43;;;;;;;3.30;1.47;;;19.20;99.90;;;;;;5094916;28;20241;-47
2023/07/12 01:51:09;;;;;;;3.47;1.60;;;19.10;99.90;;;;;;5093807;28;20178;-48
2023/07/12 01:53:35;;;;;;;11.30;1.77;;;19.10;99.90;;;;;;5093957;28;20186;-48
2023/07/12 01:56:03;;;;;;;6.87;1.60;;;19.20;99.90;;;;;;5093608;28;20686;-48
2023/07/12 01:58:28;;;;;;;8.13;1.97;;;19.20;99.90;;;;;;5093911;28;20635;-49
2023/07/12 02:00:55;;;;;;;6.70;2.07;;;19.20;99.90;;;;;;5093872;28;20236;-48
2023/07/12 02:03:20;;;;;;;3.87;1.77;;;19.20;99.90;;;;;;5093734;28;20181;-49
2023/07/12 02:05:46;;;;;;;8.17;1.80;;;19.20;99.90;;;;;;5093703;28;20726;-49
2023/07/12 02:08:13;;;;;;;6.27;1.67;;;19.10;99.90;;;;;;5093752;28;20194;-48
2023/07/12 02:10:38;;;;;;;4.63;1.53;;;19.20;99.90;;;;;;5093459;28;20247;-48
2023/07/12 02:13:05;;;;;;;4.70;1.90;;;19.20;99.90;;;;;;5093494;28;20206;-49
2023/07/12 02:15:30;;;;;;;3.57;1.67;;;19.20;99.90;;;;;;5093387;28;20195;-47
2023/07/12 02:17:56;;;;;;;3.93;1.70;;;19.10;99.90;;;;;;5093377;28;20215;-48
2023/07/12 02:20:22;;;;;;;5.40;1.57;;;19.10;99.90;;;;;;5093394;28;20219;-48
2023/07/12 02:22:49;;;;;;;5.33;2.03;;;19.10;99.90;;;;;;5093680;28;20266;-49
2023/07/12 02:25:15;;;;;;;6.30;1.30;;;19.10;99.90;;;;;;5093321;28;20554;-48
2023/07/12 02:27:44;;;;;;;6.47;1.90;;;19.10;99.90;;;;;;5093207;28;20210;-49
2023/07/12 02:30:12;;;;;;;5.57;1.43;;;19.10;99.90;;;;;;5093312;28;20241;-47
2023/07/12 02:32:38;;;;;;;3.07;1.13;;;19.00;99.90;;;;;;5093532;28;20526;-48
2023/07/12 02:35:04;;;;;;;4.03;1.37;;;19.00;99.90;;;;;;5093335;28;20202;-48
2023/07/12 02:37:30;;;;;;;5.30;1.10;;;19.00;99.90;;;;;;5093198;28;20179;-49
2023/07/12 02:39:55;;;;;;;1.00;0.90;;;19.00;99.90;;;;;;5093138;28;20206;-47
2023/07/12 02:42:21;;;;;;;3.30;1.30;;;18.90;99.90;;;;;;5093177;28;20666;-48
2023/07/12 02:44:46;;;;;;;2.03;0.87;;;18.70;99.90;;;;;;5093147;28;20195;-49
2023/07/12 02:47:12;;;;;;;4.27;1.20;;;18.70;99.90;;;;;;5093444;28;20259;-48
2023/07/12 02:49:38;;;;;;;6.10;1.10;;;18.60;99.90;;;;;;5094820;28;20182;-48
2023/07/12 02:52:06;;;;;;;3.53;1.30;;;18.50;99.90;;;;;;5093568;28;20179;-47
2023/07/12 02:54:32;;;;;;;3.53;0.90;;;18.40;99.90;;;;;;5094436;28;20184;-49
2023/07/12 02:56:59;;;;;;;1.77;0.97;;;18.20;99.90;;;;;;5097087;28;20210;-48
2023/07/12 02:59:25;;;;;;;5.20;1.30;;;18.10;99.90;;;;;;5097353;28;20202;-49
2023/07/12 03:01:51;;;;;;;3.30;1.10;;;18.00;99.90;;;;;;5097000;28;20175;-47
2023/07/12 03:04:17;;;;;;;2.77;0.80;;;18.00;99.90;;;;;;5097326;28;20175;-47
2023/07/12 03:06:43;;;;;;;4.43;1.60;;;17.90;99.90;;;;;;5097050;28;20217;-50
2023/07/12 03:09:09;;;;;;;5.50;1.20;;;17.90;99.90;;;;;;5095482;28;20214;-50
2023/07/12 03:11:35;;;;;;;2.67;1.07;;;17.80;99.90;;;;;;5096773;28;20291;-50
2023/07/12 03:14:01;;;;;;;1.60;1.00;;;17.70;99.90;;;;;;5097004;28;20669;-49
2023/07/12 03:16:26;;;;;;;1.90;1.00;;;17.60;99.90;;;;;;5095293;28;20543;-49
2023/07/12 03:18:53;;;;;;;4.97;1.40;;;17.50;99.90;;;;;;5096684;28;20179;-47
2023/07/12 03:21:19;;;;;;;3.37;1.47;;;17.50;99.90;;;;;;5096871;28;20171;-48
2023/07/12 03:23:45;;;;;;;4.60;1.30;;;17.40;99.90;;;;;;5096594;28;20197;-49
2023/07/12 03:26:11;;;;;;;2.73;1.27;;;17.40;99.90;;;;;;5096708;28;20202;-48
2023/07/12 03:28:36;;;;;;;2.47;1.20;;;17.40;99.90;;;;;;5096685;28;20203;-49
2023/07/12 03:31:07;;;;;;;5.07;0.90;;;17.40;99.90;;;;;;5096729;28;20512;-47
2023/07/12 03:33:33;;;;;;;1.57;0.90;;;17.40;99.90;;;;;;5096322;28;20193;-48
2023/07/12 03:36:00;;;;;;;7.57;1.50;;;17.40;99.90;;;;;;5096541;28;20190;-48
2023/07/12 03:38:28;;;;;;;3.53;1.00;;;17.40;99.90;;;;;;5096327;28;20191;-49
2023/07/12 03:40:55;;;;;;;1.57;1.00;;;17.30;99.90;;;;;;5096478;28;20187;-47
2023/07/12 03:43:21;;;;;;;3.90;1.00;;;17.30;99.90;;;;;;5097273;28;20178;-49
2023/07/12 03:45:46;;;;;;;2.10;1.07;;;17.30;99.90;;;;;;5096197;28;20205;-48
2023/07/12 03:48:12;;;;;;;5.07;1.20;;;17.30;99.90;;;;;;5097337;28;20190;-43
2023/07/12 03:50:41;;;;;;;5.10;1.30;;;17.30;99.90;;;;;;5096019;28;20175;-40
2023/07/12 03:53:08;;;;;;;4.17;1.20;;;17.30;99.90;;;;;;5096271;28;20177;-42
2023/07/12 03:55:39;;;;;;;6.40;1.17;;;17.30;99.90;;;;;;5096004;28;20199;-42
2023/07/12 03:58:05;;;;;;;2.10;0.83;;;17.30;99.90;;;;;;5096196;28;20163;-41
2023/07/12 04:00:30;;;;;;;2.63;0.90;;;17.20;99.90;;;;;;5095839;28;20175;-41
2023/07/12 04:02:56;;;;;;;3.37;1.10;;;17.20;99.90;;;;;;5095836;28;20239;-44
2023/07/12 04:05:22;;;;;;;2.70;1.10;;;17.20;99.90;;;;;;5095246;28;20270;-41
2023/07/12 04:07:47;;;;;;;2.60;1.10;;;17.20;99.90;;;;;;5095150;28;20727;-42
2023/07/12 04:10:13;;;;;;;3.23;1.37;;;17.20;99.90;;;;;;5095637;28;20175;-41
2023/07/12 04:12:39;;;;;;;3.87;1.13;;;17.20;99.90;;;;;;5095591;28;20167;-41
2023/07/12 04:15:06;;;;;;;6.07;1.20;;;17.20;99.90;;;;;;5095592;28;20199;-41
2023/07/12 04:17:31;;;;;;;5.40;1.03;;;17.20;99.90;;;;;;5095427;28;20187;-43
2023/07/12 04:19:58;;;;;;;1.83;1.03;;;17.20;99.90;;;;;;5095729;28;20190;-42
2023/07/12 04:22:24;;;;;;;2.17;1.10;;;17.20;99.90;;;;;;5095346;28;20520;-41
2023/07/12 04:24:50;;;;;;;1.97;0.97;;;17.20;99.90;;;;;;5095574;28;20205;-42
2023/07/12 04:27:16;;;;;;;2.40;1.00;;;17.20;99.90;;;;;;5095285;28;20199;-43
2023/07/12 04:29:42;;;;;;;3.23;1.30;;;17.20;99.90;;;;;;5095274;28;20258;-43
2023/07/12 04:32:08;;;;;;;1.00;0.90;;;17.10;99.90;;;;;;5095498;28;20524;-43
2023/07/12 04:34:33;;;;;;;1.73;1.10;;;17.20;99.90;;;;;;5095095;28;20250;-42
2023/07/12 04:36:59;;;;;;;2.13;1.20;;;17.20;99.90;;;;;;5095372;28;20658;-41
2023/07/12 04:39:25;;;;;;;1.20;1.10;;;17.20;99.90;;;;;;5094976;28;20222;-43
2023/07/12 04:41:50;;;;;;;2.13;0.80;;;17.20;99.90;;;;;;5095304;28;20174;-41
2023/07/12 04:44:16;;;;;;;2.40;1.27;;;17.20;99.90;;;;;;5095316;28;20217;-42
2023/07/12 04:46:42;;;;;;;4.60;1.00;;;17.30;99.90;;;;;;5095120;28;20247;-43
2023/07/12 04:49:08;;;;;;;3.00;1.00;;;17.20;99.90;;;;;;5096314;28;20329;-48
2023/07/12 04:51:34;;;;;;;1.53;1.00;;;17.30;99.90;;;;;;5095160;28;20186;-47
2023/07/12 04:54:00;;;;;;;3.20;0.90;;;17.40;99.90;;;;;;5095113;28;20570;-49
2023/07/12 04:56:25;;;;;;;2.60;1.17;;;17.40;99.90;;;;;;5094720;28;20213;-49
2023/07/12 04:58:51;;;;;;;1.57;0.90;;;17.40;99.90;;;;;;5094827;28;20186;-48
2023/07/12 05:01:18;;;;;;;1.27;0.80;;;17.40;99.90;;;;;;5095279;28;20761;-49
2023/07/12 05:03:44;;;;;;;2.60;0.77;;;17.40;99.90;;;;;;5095337;28;20250;-47
2023/07/12 05:06:10;;;;;;;1.73;0.80;;;17.50;99.90;;;;;;5094877;28;20244;-48
2023/07/12 05:08:35;;;;;;;2.40;0.80;;;17.40;99.90;;;;;;5094831;28;20207;-49
2023/07/12 05:11:03;;;;;;;1.30;0.77;;;17.50;99.90;;;;;;5094723;28;20514;-46
2023/07/12 05:13:29;;;;;;;1.03;0.90;;;17.40;99.90;;;;;;5094675;28;20236;-48
2023/07/12 05:15:55;;;;;;;2.63;1.00;;;17.40;99.90;;;;;;5094312;28;20201;-47
2023/07/12 05:18:22;;;;;;;2.87;1.10;;;17.40;99.90;;;;;;5094461;28;20191;-47
2023/07/12 05:20:52;;;;;;;1.93;1.00;;;17.40;99.90;;;;;;5094738;28;20718;-50
2023/07/12 05:23:18;;;;;;;2.27;0.93;;;17.40;99.90;;;;;;5094654;28;20190;-48
2023/07/12 05:25:51;;;;;;;2.73;0.93;;;17.40;99.90;;;;;;5094629;28;20690;-48
2023/07/12 05:28:17;;;;;;;3.20;0.97;;;17.40;99.90;;;;;;5093563;28;20301;-48
2023/07/12 05:30:43;;;;;;;3.20;0.87;;;17.50;99.90;;;;;;5095339;28;20182;-48
2023/07/12 05:33:08;;;;;;;4.20;1.30;;;17.40;99.90;;;;;;5095494;28;20171;-48
2023/07/12 05:35:34;;;;;;;3.40;1.10;;;17.40;99.90;;;;;;5095260;28;20210;-49
2023/07/12 05:37:59;;;;;;;3.43;1.20;;;17.50;99.90;;;;;;5094057;28;20547;-49
2023/07/12 05:40:25;;;;;;;2.30;1.00;;;17.50;99.90;;;;;;5094334;28;20206;-47
2023/07/12 05:42:51;;;;;;;1.83;0.90;;;17.50;99.90;;;;;;5094231;28;20190;-48
2023/07/12 05:45:16;;;;;;;2.53;1.17;;;17.50;99.90;;;;;;5093825;28;20297;-49
2023/07/12 05:47:42;;;;;;;2.83;1.40;;;17.60;99.90;;;;;;5093816;28;20206;-47
2023/07/12 05:50:15;;;;;;;1.87;1.10;;;17.60;99.90;;;;;;5095230;28;20178;-47
2023/07/12 05:52:41;;;;;;;3.50;1.27;;;17.70;99.90;;;;;;5094439;28;20194;-49
2023/07/12 05:55:09;;;;;;;5.33;1.73;;;17.80;99.90;;;;;;5093915;28;20321;-48
2023/07/12 05:57:35;;;;;;;4.80;1.13;;;17.80;99.90;;;;;;5094007;28;20205;-47
2023/07/12 06:00:01;;;;;;;8.23;1.50;;;17.90;99.90;;;;;;5094872;28;20640;-49
2023/07/12 06:02:27;;;;;;;4.67;1.07;;;18.00;99.90;;;;;;5093655;28;20525;-48
2023/07/12 06:04:52;;;;;;;3.70;1.07;;;18.00;99.90;;;;;;5094031;28;20202;-48
2023/07/12 06:07:18;;;;;;;4.03;1.30;;;18.10;99.90;;;;;;5093497;28;20671;-47
2023/07/12 06:09:44;;;;;;;5.53;1.30;;;18.20;99.90;;;;;;5093527;28;20639;-47
2023/07/12 06:12:11;;;;;;;4.80;1.17;;;18.30;99.90;;;;;;5093537;28;20175;-48
2023/07/12 06:14:37;;;;;;;1.70;1.20;;;18.40;99.90;;;;;;5093456;28;20659;-48
2023/07/12 06:17:03;;;;;;;3.17;1.10;;;18.60;99.90;;;;;;5093787;28;20190;-48
2023/07/12 06:19:29;;;;;;;3.50;0.90;;;18.80;99.90;;;;;;5093774;28;20182;-47
2023/07/12 06:21:55;;;;;;;2.10;1.00;;;18.90;99.90;;;;;;5093720;28;20200;-47
2023/07/12 06:24:20;;;;;;;2.83;1.30;;;19.00;99.90;;;;;;5093288;28;20303;-49
2023/07/12 06:26:46;;;;;;;3.37;1.20;;;19.10;99.90;;;;;;5093437;28;20167;-47
2023/07/12 06:29:11;;;;;;;2.63;1.10;;;19.30;99.90;;;;;;5094402;28;20233;-47
2023/07/12 06:31:37;;;;;;;2.80;1.17;;;19.30;99.90;;;;;;5097615;28;20185;-48
2023/07/12 06:34:03;;;;;;;2.83;1.17;;;19.50;99.90;;;;;;5097525;28;20510;-46
2023/07/12 06:36:33;;;;;;;3.17;1.17;;;19.70;99.90;;;;;;5097796;28;20202;-48
2023/07/12 06:38:59;;;;;;;1.77;1.17;;;19.80;99.90;;;;;;5097377;28;20206;-48
2023/07/12 06:41:24;;;;;;;2.77;1.40;;;20.00;99.90;;;;;;5096112;28;20187;-48
2023/07/12 06:43:50;;;;;;;1.67;0.90;;;20.10;99.90;;;;;;5097572;28;20178;-47
2023/07/12 06:46:16;;;;;;;2.77;1.13;;;20.10;1.00;;;;;;5097332;28;20203;-48
2023/07/12 06:48:42;;;;;;;5.33;1.30;;;20.10;1.00;;;;;;5098618;28;20721;-48
2023/07/12 06:51:07;;;;;;;5.43;1.40;;;20.10;1.00;;;;;;5097199;28;20199;-48
2023/07/12 06:53:33;;;;;;;3.70;1.33;;;20.00;1.00;;;;;;5097445;28;20254;-49
2023/07/12 06:55:59;;;;;;;4.13;1.20;;;20.00;1.00;;;;;;5097257;28;20194;-48
2023/07/12 06:58:24;;;;;;;1.80;1.07;;;19.90;1.00;;;;;;5097372;28;20183;-48
2023/07/12 07:00:50;;;;;;;1.47;1.07;;;19.90;1.00;;;;;;5097612;28;20262;-48
2023/07/12 07:03:17;;;;;;;2.93;1.40;;;19.80;1.00;;;;;;5096981;28;20220;-48
2023/07/12 07:05:46;;;;;;;5.20;1.73;;;19.80;1.00;;;;;;5096869;28;20191;-47
2023/07/12 07:08:14;;;;;;;2.30;1.20;;;19.80;1.00;;;;;;5097111;28;20781;-47
2023/07/12 07:10:41;;;;;;;3.00;1.20;;;19.80;1.00;;;;;;5096823;28;20171;-47
2023/07/12 07:13:08;;;;;;;4.07;1.33;;;19.80;1.00;;;;;;5097087;28;20178;-49
2023/07/12 07:15:34;;;;;;;4.73;1.37;;;19.80;1.00;;;;;;5096957;28;20198;-48
2023/07/12 07:17:59;;;;;;;3.37;1.20;;;19.80;1.00;;;;;;5097030;28;20175;-47
2023/07/12 07:20:27;;;;;;;4.13;1.30;;;19.80;1.00;;;;;;5096723;28;20171;-48
2023/07/12 07:22:52;;;;;;;3.93;1.20;;;19.90;1.00;;;;;;5096581;28;20189;-48
2023/07/12 07:25:18;;;;;;;3.80;1.80;;;20.00;1.00;;;;;;5096690;28;20198;-48
2023/07/12 07:27:44;;;;;;;3.47;1.10;;;20.20;1.00;;;;;;5097050;28;20201;-47
2023/07/12 07:30:10;;;;;;;3.63;1.20;;;20.30;1.00;;;;;;5096785;28;20178;-48
2023/07/12 07:32:36;;;;;;;3.90;1.00;;;20.40;99.90;;;;;;5096342;28;20171;-49
2023/07/12 07:35:01;;;;;;;8.53;1.67;;;20.60;99.90;;;;;;5096374;28;20190;-47
2023/07/12 07:37:27;;;;;;;2.93;1.17;;;20.80;99.90;;;;;;5096597;28;20190;-48
2023/07/12 07:39:52;;;;;;;2.73;1.30;;;20.90;39.40;;;;;;5095987;28;20195;-47
2023/07/12 07:42:18;;;;;;;3.03;1.40;;;21.10;10.10;;;;;;5096247;28;20588;-47
2023/07/12 07:44:44;;;;;;;4.63;1.27;;;21.20;1.00;;;;;;5096438;28;20214;-48
2023/07/12 07:47:10;;;;;;;4.13;1.10;;;21.30;74.60;;;;;;5096341;28;20179;-48
2023/07/12 07:49:36;;;;;;;3.33;1.33;;;21.30;99.90;;;;;;5098025;28;20178;-42
2023/07/12 07:52:02;;;;;;;3.67;1.17;;;21.40;1.00;;;;;;5096444;28;20175;-44
2023/07/12 07:54:28;;;;;;;3.80;1.17;;;21.40;1.00;;;;;;5095961;28;20639;-44
2023/07/12 07:56:54;;;;;;;3.70;1.10;;;21.50;1.00;;;;;;5096296;28;20227;-43
2023/07/12 07:59:19;;;;;;;2.83;1.20;;;21.40;99.90;;;;;;5096152;28;20579;-42
2023/07/12 08:01:45;;;;;;;4.57;1.30;;;21.40;1.00;;;;;;5095883;28;20670;-44
2023/07/12 08:04:10;;;;;;;3.07;1.10;;;21.50;1.00;;;;;;5096120;28;20643;-43
2023/07/12 08:06:38;;;;;;;2.50;1.00;;;21.70;1.00;;;;;;5095711;28;20740;-43
2023/07/12 08:09:05;;;;;;;3.60;1.07;;;21.80;1.00;;;;;;5095967;28;20214;-45
2023/07/12 08:11:31;;;;;;;4.67;1.40;;;21.70;99.90;;;;;;5095930;28;20175;-44
2023/07/12 08:13:57;;;;;;;2.70;0.87;;;21.70;99.90;;;;;;5095646;28;20175;-44
2023/07/12 08:16:26;;;;;;;4.40;1.23;;;21.70;99.90;;;;;;5095774;28;20329;-44
2023/07/12 08:18:52;;;;;;;4.00;1.00;;;21.70;1.00;;;;;;5095521;28;20183;-43
2023/07/12 08:21:18;;;;;;;4.40;1.23;;;21.60;1.00;;;;;;5095753;28;20191;-44
2023/07/12 08:23:43;;;;;;;4.00;1.07;;;21.70;1.00;;;;;;5095473;28;20174;-43
2023/07/12 08:26:09;;;;;;;4.03;1.07;;;21.90;37.90;;;;;;5095676;28;20194;-44
2023/07/12 08:28:34;;;;;;;3.83;1.27;;;22.00;1.00;;;;;;5095560;28;20671;-44
2023/07/12 08:31:00;;;;;;;2.17;1.00;;;22.10;1.00;;;;;;5095580;28;20175;-44
2023/07/12 08:33:25;;;;;;;8.77;1.57;;;22.10;99.90;;;;;;5095268;28;20174;-45
2023/07/12 08:35:51;;;;;;;4.80;1.20;;;22.10;1.00;;;;;;5095173;28;20754;-43
2023/07/12 08:38:18;;;;;;;2.90;1.10;;;22.20;1.00;;;;;;5095063;28;20187;-43
2023/07/12 08:40:49;;;;;;;2.87;0.83;;;22.10;1.00;;;;;;5095155;28;20642;-44
2023/07/12 08:43:21;;;;;;;3.73;1.30;;;21.90;1.00;;;;;;5095512;28;20163;-44
2023/07/12 08:45:49;;;;;;;4.17;1.30;;;21.80;99.90;;;;;;5095262;28;20202;-44
2023/07/12 08:48:18;;;;;;;4.57;1.50;;;21.90;99.90;;;;;;5096377;28;20206;-45
2023/07/12 08:50:45;;;;;;;3.77;1.30;;;22.00;1.00;;;;;;5094965;28;20592;-43
2023/07/12 08:53:16;;;;;;;3.03;1.00;;;22.10;96.80;;;;;;5094265;28;20265;-43
2023/07/12 08:55:42;;;;;;;2.83;0.90;;;22.20;99.90;;;;;;5094955;28;20194;-43
2023/07/12 08:58:23;;;;;;;3.07;1.20;;;22.20;1.00;;;;;;5095264;28;20190;-42
2023/07/12 09:01:03;;;;;;;3.57;0.93;;;22.30;99.90;;;;;;5095196;28;20167;-45
2023/07/12 09:03:29;;;;;;;1.67;0.90;;;22.40;99.90;;;;;;5095173;28;20217;-42
2023/07/12 09:05:54;;;;;;;3.73;1.00;;;22.50;1.00;;;;;;5094821;28;20198;-45
2023/07/12 09:08:38;;;;;;;2.93;1.20;;;22.60;99.90;;;;;;5094445;28;20203;-42
2023/07/12 09:11:16;;;;;;;2.87;1.00;;;22.70;99.90;;;;;;5094563;28;20258;-43
2023/07/12 09:13:42;;;;;;;2.33;0.97;;;22.60;99.90;;;;;;5094860;28;20526;-44
2023/07/12 09:16:30;;;;;;;6.50;1.13;;;22.50;1.00;;;;;;5094414;28;20195;-43
2023/07/12 09:18:58;;;;;;;3.37;1.23;;;22.50;99.90;;;;;;5094718;28;20213;-43
2023/07/12 09:21:35;;;;;;;3.23;1.30;;;22.60;99.90;;;;;;5094411;28;20639;-43
2023/07/12 09:24:09;;;;;;;2.63;1.00;;;22.80;1.00;;;;;;5094615;28;20250;-44
2023/07/12 09:26:36;;;;;;;2.53;1.20;;;22.90;1.00;;;;;;5094268;28;20187;-42
2023/07/12 09:29:13;;;;;;;2.80;1.13;;;22.90;1.00;;;;;;5094657;28;20248;-41
2023/07/12 09:31:40;;;;;;;4.13;1.17;;;23.10;1.00;;;;;;5092934;28;20167;-44
2023/07/12 09:34:19;;;;;;;3.60;1.50;;;23.10;1.00;;;;;;5094327;28;20182;-44
2023/07/12 09:36:44;;;;;;;2.77;1.30;;;23.30;99.90;;;;;;5094466;28;20159;-41
2023/07/12 09:39:11;;;;;;;2.00;0.93;;;23.30;1.00;;;;;;5093945;28;20690;-43
2023/07/12 09:41:51;;;;;;;6.57;1.30;;;23.30;99.90;;;;;;5094243;28;20191;-43
2023/07/12 09:44:17;;;;;;;3.27;1.10;;;23.10;99.90;;;;;;5094310;28;20496;-42
2023/07/12 09:47:15;;;;;;;3.90;0.80;;;23.00;1.00;;;;;;5094615;28;20205;-44
2023/07/12 09:49:50;;;;;;;3.47;1.30;;;22.90;66.60;;;;;;5094864;28;20572;-49
2023/07/12 09:52:30;;;;;;;2.93;0.90;;;22.90;1.00;;;;;;5094185;28;20165;-49
2023/07/12 09:55:03;;;;;;;3.57;1.00;;;22.90;1.00;;;;;;5093979;28;20663;-49
2023/07/12 09:57:29;;;;;;;3.77;1.00;;;23.00;99.90;;;;;;5094913;28;20246;-48
2023/07/12 10:00:00;;;;;;;8.03;1.20;;;23.00;1.00;;;;;;5093987;28;20603;-49
2023/07/12 10:02:55;;;;;;;5.93;1.40;;;23.10;99.90;;;;;;5093760;28;20238;-49
2023/07/12 10:05:22;;;;;;;4.37;1.10;;;23.20;99.90;;;;;;5093871;28;20182;-48
2023/07/12 10:08:05;;;;;;;4.67;0.87;;;23.30;99.90;;;;;;5094054;28;20202;-50
2023/07/12 10:10:39;;;;;;;7.07;0.87;;;23.40;99.90;;;;;;5093873;28;20174;-50
2023/07/12 10:13:41;;;;;;;2.00;0.80;;;23.50;1.00;;;;;;5093818;28;20179;-48
2023/07/12 10:16:34;;;;;;;3.77;0.97;;;23.50;1.00;;;;;;5092729;28;20713;-48
2023/07/12 10:19:11;;;;;;;3.93;1.00;;;23.40;99.90;;;;;;5093520;28;20642;-50
2023/07/12 10:21:38;;;;;;;2.63;0.90;;;23.60;1.00;;;;;;5093782;28;20687;-50
2023/07/12 10:24:06;;;;;;;3.03;1.00;;;23.70;1.00;;;;;;5093956;28;20639;-49
2023/07/12 10:26:34;;;;;;;2.90;0.97;;;23.80;99.90;;;;;;5093660;28;20281;-49
2023/07/12 10:29:07;;;;;;;2.27;1.00;;;23.80;99.90;;;;;;5093588;28;20213;-49
2023/07/12 10:31:55;;;;;;;3.57;1.07;;;24.00;99.90;;;;;;5093335;28;20675;-49
2023/07/12 10:34:27;;;;;;;3.90;0.80;;;23.90;99.90;;;;;;5093181;28;20171;-51
2023/07/12 10:36:55;;;;;;;2.57;0.87;;;24.00;1.00;;;;;;5093625;28;20557;-49
2023/07/12 10:39:26;;;;;;;5.83;1.43;;;24.00;1.00;;;;;;5093405;28;20199;-49
2023/07/12 10:42:09;;;;;;;2.53;1.07;;;24.10;7.90;;;;;;5093490;28;20572;-48
2023/07/12 10:44:41;;;;;;;3.27;1.17;;;24.10;53.60;;;;;;5093509;28;20266;-50
2023/07/12 10:47:14;;;;;;;3.37;1.03;;;24.00;99.90;;;;;;5093379;28;20182;-50
2023/07/12 10:49:57;;;;;;;2.97;1.00;;;24.00;1.00;;;;;;5094480;28;20166;-49
2023/07/12 10:52:29;;;;;;;5.33;1.30;;;24.10;99.90;;;;;;5093171;28;20191;-47
2023/07/12 10:55:04;;;;;;;6.13;1.10;;;24.20;15.80;;;;;;5093313;28;20223;-48
2023/07/12 10:58:12;;;;;;;2.47;0.90;;;24.40;7.00;;;;;;5093349;28;20179;-48
2023/07/12 11:00:49;;;;;;;5.20;1.00;;;24.60;1.00;;;;;;5092967;28;20715;-49
2023/07/12 11:03:19;;;;;;;1.92;0.73;;;24.70;1.00;;;;;;5093340;28;20169;-47
2023/07/12 11:06:03;;;;;;;0.83;0.60;;;24.70;99.90;;;;;;5093174;28;20290;-48
2023/07/12 11:08:31;;;;;;;3.23;0.80;;;24.60;99.90;;;;;;5093302;28;20197;-47
2023/07/12 11:11:09;;;;;;;2.37;0.97;;;24.80;1.00;;;;;;5092986;28;20261;-48
2023/07/12 11:13:44;;;;;;;2.13;0.80;;;25.00;1.00;;;;;;5092948;28;20181;-47
2023/07/12 11:16:18;;;;;;;2.60;0.88;;;25.10;1.00;;;;;;5095395;28;20571;-49
2023/07/12 11:18:56;;;;;;;3.07;1.43;;;25.20;99.90;;;;;;5097069;28;20569;-49
2023/07/12 11:21:50;;;;;;;4.63;1.00;;;25.20;99.90;;;;;;5096995;28;20182;-49
2023/07/12 11:24:30;;;;;;;3.00;1.00;;;25.50;99.90;;;;;;5096508;28;20206;-48
2023/07/12 11:26:59;;;;;;;2.90;1.40;;;25.50;1.00;;;;;;5096681;28;20170;-48
2023/07/12 11:29:24;;;;;;;3.92;1.00;;;25.50;90.90;;;;;;5096501;28;20210;-48
2023/07/12 11:32:07;;;;;;;2.72;1.10;;;25.40;1.00;;;;;;5096746;28;20185;-48
2023/07/12 11:34:38;;;;;;;3.67;1.02;;;25.30;1.00;;;;;;5096691;28;20615;-49
2023/07/12 11:37:15;;;;;;;5.88;1.40;;;25.40;93.50;;;;;;5096697;28;20175;-49
2023/07/12 11:39:44;;;;;;;3.00;0.95;;;25.20;1.00;;;;;;5096438;28;20543;-49
2023/07/12 11:42:26;;;;;;;4.75;1.08;;;25.20;1.00;;;;;;5096557;28;20167;-48
2023/07/12 11:45:03;;;;;;;3.85;0.93;;;25.10;1.00;;;;;;5096400;28;20738;-48
2023/07/12 11:47:29;;;;;;;4.00;1.23;;;25.20;28.30;;;;;;5096404;28;20614;-49
2023/07/12 11:49:57;;;;;;;2.40;1.25;;;25.20;1.00;;;;;;5097623;28;20250;-50
2023/07/12 11:52:25;;;;;;;3.85;1.30;;;25.10;1.00;;;;;;5096347;28;20591;-50
2023/07/12 11:54:53;;;;;;;2.35;1.00;;;25.10;99.90;;;;;;5095902;28;20186;-49
2023/07/12 11:57:18;;;;;;;3.60;1.20;;;25.20;99.90;;;;;;5096199;28;20210;-46
2023/07/12 11:59:47;;;;;;;3.67;1.00;;;25.50;7.50;;;;;;5095975;28;20215;-42
2023/07/12 12:02:15;;;;;;;2.58;0.77;;;25.70;67.30;;;;;;5096200;28;20518;-44
2023/07/12 12:04:40;;;;;;;2.60;0.95;;;25.70;1.00;;;;;;5096053;28;20202;-45
2023/07/12 12:07:26;;;;;;;3.25;1.00;;;25.70;1.00;;;;;;5096308;28;20540;-45
2023/07/12 12:09:53;;;;;;;4.28;1.15;;;25.60;99.90;;;;;;5095929;28;20167;-41
2023/07/12 12:12:24;;;;;;;4.25;1.05;;;25.60;1.00;;;;;;5095960;28;20175;-42
2023/07/12 12:14:51;;;;;;;2.65;0.70;;;25.60;99.90;;;;;;5095871;28;20203;-43
2023/07/12 12:17:23;;;;;;;1.45;0.90;;;25.50;99.90;;;;;;5095570;28;20171;-44
2023/07/12 12:19:49;;;;;;;6.03;1.20;;;25.40;1.00;;;;;;5095608;28;20171;-45
2023/07/12 12:22:23;;;;;;;4.90;0.82;;;25.20;99.90;;;;;;5095788;28;20183;-43
2023/07/12 12:24:53;;;;;;;2.70;0.93;;;25.10;99.90;;;;;;5095659;28;20202;-44
2023/07/12 12:27:35;;;;;;;1.70;0.82;;;25.10;99.90;;;;;;5095007;28;20171;-43
2023/07/12 12:30:16;;;;;;;6.10;1.52;;;25.20;99.90;;;;;;5095636;28;20171;-43
2023/07/12 12:32:54;;;;;;;2.83;1.05;;;25.30;99.90;;;;;;5095454;28;20171;-45
2023/07/12 12:35:19;;;;;;;3.22;1.02;;;25.50;99.90;;;;;;5095355;28;20202;-44
2023/07/12 12:37:54;;;;;;;2.40;0.77;;;25.60;99.90;;;;;;5095347;28;20216;-46
2023/07/12 12:40:20;;;;;;;2.47;0.88;;;25.70;99.90;;;;;;5093895;28;20179;-43
2023/07/12 12:43:03;;;;;;;2.50;1.05;;;25.90;99.90;;;;;;5093850;28;20528;-44
2023/07/12 12:45:34;;;;;;;3.30;1.02;;;26.00;99.90;;;;;;5095031;28;20198;-44
2023/07/12 12:48:00;;;;;;;6.40;1.10;;;26.10;99.90;;;;;;5095994;28;20663;-43
2023/07/12 12:50:26;;;;;;;3.70;0.90;;;26.10;99.90;;;;;;5095235;28;20201;-43
2023/07/12 12:52:56;;;;;;;2.00;0.63;;;26.10;99.90;;;;;;5094927;28;20654;-44
2023/07/12 12:55:23;;;;;;;2.83;0.90;;;26.20;68.50;;;;;;5095129;28;20305;-43
2023/07/12 12:57:49;;;;;;;2.67;0.80;;;26.20;1.00;;;;;;5094818;28;20250;-44
2023/07/12 13:00:18;;;;;;;4.82;1.00;;;26.10;99.90;;;;;;5095116;28;20175;-44